createdAt,value
2022-12-14T00:02:01.768Z,8.23
2022-12-14T00:04:30.332Z,7.40
2022-12-14T00:07:06.804Z,7.60
2022-12-14T00:09:36.490Z,7.87
2022-12-14T00:12:04.858Z,9.00
2022-12-14T00:14:36.178Z,9.27
2022-12-14T00:17:07.668Z,7.53
2022-12-14T00:19:36.803Z,7.17
2022-12-14T00:22:05.607Z,8.25
2022-12-14T00:24:37.262Z,8.03
2022-12-14T00:27:06.608Z,7.77
2022-12-14T00:29:38.522Z,8.93
2022-12-14T00:32:07.239Z,8.70
2022-12-14T00:34:35.786Z,7.87
2022-12-14T00:37:06.525Z,7.68
2022-12-14T00:39:34.792Z,7.45
2022-12-14T00:42:04.540Z,8.33
2022-12-14T00:44:32.815Z,7.30
2022-12-14T00:47:04.051Z,9.00
2022-12-14T00:49:34.153Z,8.23
2022-12-14T00:52:02.434Z,8.65
2022-12-14T00:54:33.160Z,8.07
2022-12-14T00:57:01.660Z,7.83
2022-12-14T00:59:37.098Z,7.40
2022-12-14T01:02:07.830Z,8.60
2022-12-14T01:04:36.337Z,7.68
2022-12-14T01:07:04.621Z,9.00
2022-12-14T01:09:35.809Z,7.88
2022-12-14T01:12:04.099Z,7.85
2022-12-14T01:14:33.391Z,7.25
2022-12-14T01:17:01.854Z,7.90
2022-12-14T01:19:39.108Z,7.95
2022-12-14T01:22:07.333Z,7.07
2022-12-14T01:24:35.577Z,7.47
2022-12-14T01:27:04.335Z,8.20
2022-12-14T01:29:35.010Z,7.73
2022-12-14T01:32:03.500Z,8.43
2022-12-14T01:34:33.841Z,8.30
2022-12-14T01:37:02.920Z,7.77
2022-12-14T01:39:38.714Z,7.33
2022-12-14T01:42:11.388Z,7.53
2022-12-14T01:44:56.822Z,7.47
2022-12-14T01:47:37.465Z,7.83
2022-12-14T01:50:16.625Z,6.85
2022-12-14T01:52:46.592Z,8.25
2022-12-14T01:55:18.351Z,7.35
2022-12-14T01:57:49.503Z,6.90
2022-12-14T02:00:24.897Z,8.30
2022-12-14T02:02:54.512Z,8.18
2022-12-14T02:05:24.921Z,8.20
2022-12-14T02:07:55.415Z,6.53
2022-12-14T02:10:30.484Z,7.63
2022-12-14T02:13:02.011Z,8.60
2022-12-14T02:15:30.388Z,7.43
2022-12-14T02:17:58.859Z,7.13
2022-12-14T02:20:36.953Z,7.57
2022-12-14T02:23:37.194Z,7.93
2022-12-14T02:26:29.665Z,6.80
2022-12-14T02:29:31.161Z,6.57
2022-12-14T02:32:03.919Z,9.17
2022-12-14T02:34:36.391Z,6.53
2022-12-14T02:37:06.368Z,6.18
2022-12-14T02:39:41.788Z,7.72
2022-12-14T02:42:12.247Z,7.22
2022-12-14T02:44:47.579Z,6.43
2022-12-14T02:47:17.328Z,5.68
2022-12-14T02:50:13.551Z,7.22
2022-12-14T02:52:46.675Z,6.20
2022-12-14T02:55:17.298Z,6.10
2022-12-14T02:57:48.112Z,6.32
2022-12-14T03:00:19.952Z,6.53
2022-12-14T03:02:48.661Z,6.60
2022-12-14T03:05:17.287Z,6.20
2022-12-14T03:07:48.922Z,6.47
2022-12-14T03:10:26.384Z,7.15
2022-12-14T03:12:57.072Z,5.40
2022-12-14T03:15:27.392Z,6.10
2022-12-14T03:17:58.688Z,6.30
2022-12-14T03:20:28.613Z,6.40
2022-12-14T03:22:59.332Z,5.82
2022-12-14T03:25:32.020Z,6.85
2022-12-14T03:28:03.835Z,6.97
2022-12-14T03:30:59.380Z,5.90
2022-12-14T03:33:26.105Z,6.20
2022-12-14T03:36:00.497Z,6.27
2022-12-14T03:38:32.563Z,5.93
2022-12-14T03:41:11.647Z,5.22
2022-12-14T03:43:42.857Z,5.93
2022-12-14T03:46:22.052Z,6.45
2022-12-14T03:48:51.889Z,5.47
2022-12-14T03:51:24.967Z,5.45
2022-12-14T03:53:55.729Z,6.47
2022-12-14T03:56:26.613Z,6.65
2022-12-14T03:59:00.396Z,5.82
2022-12-14T04:01:40.020Z,7.03
2022-12-14T04:04:10.211Z,6.22
2022-12-14T04:06:41.032Z,5.22
2022-12-14T04:09:15.061Z,5.50
2022-12-14T04:12:08.439Z,6.65
2022-12-14T04:14:54.814Z,6.07
2022-12-14T04:17:44.760Z,5.97
2022-12-14T04:20:17.904Z,5.53
2022-12-14T04:22:52.349Z,6.00
2022-12-14T04:25:41.185Z,6.60
2022-12-14T04:28:33.341Z,6.40
2022-12-14T04:31:02.212Z,6.10
2022-12-14T04:33:51.693Z,5.30
2022-12-14T04:36:24.217Z,4.93
2022-12-14T04:38:54.126Z,5.40
2022-12-14T04:41:24.879Z,6.70
2022-12-14T04:43:59.803Z,5.63
2022-12-14T04:46:29.019Z,5.97
2022-12-14T04:49:01.391Z,6.38
2022-12-14T04:51:33.054Z,6.63
2022-12-14T04:54:10.311Z,5.45
2022-12-14T04:56:40.626Z,5.45
2022-12-14T04:59:09.020Z,6.10
2022-12-14T05:01:44.135Z,5.07
2022-12-14T05:04:26.802Z,5.82
2022-12-14T05:07:00.983Z,6.07
2022-12-14T05:09:30.098Z,5.63
2022-12-14T05:12:01.544Z,5.00
2022-12-14T05:14:35.550Z,5.13
2022-12-14T05:17:09.294Z,5.57
2022-12-14T05:19:45.489Z,4.63
2022-12-14T05:22:17.362Z,4.90
2022-12-14T05:24:47.163Z,5.40
2022-12-14T05:27:16.017Z,5.38
2022-12-14T05:29:56.312Z,5.13
2022-12-14T05:32:25.997Z,5.95
2022-12-14T05:35:01.495Z,5.60
2022-12-14T05:37:32.882Z,5.75
2022-12-14T05:40:04.933Z,5.15
2022-12-14T05:42:44.681Z,5.45
2022-12-14T05:45:16.892Z,4.63
2022-12-14T05:47:47.240Z,4.82
2022-12-14T05:50:17.848Z,5.50
2022-12-14T05:52:46.991Z,5.28
2022-12-14T05:55:23.235Z,4.93
2022-12-14T05:57:58.504Z,6.13
2022-12-14T06:00:27.599Z,6.05
2022-12-14T06:03:11.680Z,7.07
2022-12-14T06:05:48.599Z,6.05
2022-12-14T06:08:31.878Z,5.32
2022-12-14T06:11:04.110Z,4.93
2022-12-14T06:13:36.842Z,4.43
2022-12-14T06:16:11.346Z,5.13
2022-12-14T06:18:45.521Z,6.00
2022-12-14T06:21:15.599Z,5.28
2022-12-14T06:23:45.799Z,5.10
2022-12-14T06:26:15.527Z,5.55
2022-12-14T06:28:43.942Z,5.35
2022-12-14T06:31:15.902Z,5.85
2022-12-14T06:33:46.544Z,6.40
2022-12-14T06:36:21.318Z,5.05
2022-12-14T06:38:51.103Z,5.47
2022-12-14T06:41:41.168Z,5.40
2022-12-14T06:44:11.229Z,5.68
2022-12-14T06:46:49.842Z,5.50
2022-12-14T06:49:19.299Z,5.45
2022-12-14T06:51:49.356Z,5.90
2022-12-14T06:54:23.477Z,5.78
2022-12-14T06:56:54.853Z,5.75
2022-12-14T06:59:23.341Z,6.38
2022-12-14T07:01:51.872Z,5.43
2022-12-14T07:04:21.530Z,6.03
2022-12-14T07:06:53.959Z,6.18
2022-12-14T07:09:22.742Z,5.63
2022-12-14T07:11:52.242Z,5.70
2022-12-14T07:14:23.082Z,5.05
2022-12-14T07:16:54.462Z,7.65
2022-12-14T07:19:22.925Z,5.60
2022-12-14T07:21:52.950Z,5.53
2022-12-14T07:24:27.725Z,5.85
2022-12-14T07:27:00.690Z,5.93
2022-12-14T07:29:39.962Z,5.93
2022-12-14T07:32:08.287Z,7.30
2022-12-14T07:34:36.889Z,6.07
2022-12-14T07:37:09.708Z,6.50
2022-12-14T07:39:38.108Z,5.95
2022-12-14T07:42:10.111Z,5.57
2022-12-14T07:44:45.041Z,5.18
2022-12-14T07:47:16.964Z,5.65
2022-12-14T07:49:45.899Z,7.25
2022-12-14T07:52:20.828Z,6.65
2022-12-14T07:54:49.743Z,7.70
2022-12-14T07:57:26.243Z,7.53
2022-12-14T07:59:57.577Z,6.13
2022-12-14T08:02:26.234Z,6.35
2022-12-14T08:04:54.952Z,5.70
2022-12-14T08:07:34.780Z,6.72
2022-12-14T08:10:04.975Z,6.85
2022-12-14T08:12:35.934Z,6.88
2022-12-14T08:15:06.687Z,6.40
2022-12-14T08:17:38.495Z,6.63
2022-12-14T08:20:08.089Z,7.07
2022-12-14T08:22:45.793Z,6.72
2022-12-14T08:25:17.525Z,7.00
2022-12-14T08:27:46.484Z,7.30
2022-12-14T08:30:16.295Z,6.43
2022-12-14T08:32:49.198Z,6.05
2022-12-14T08:35:23.297Z,6.22
2022-12-14T08:37:59.997Z,6.40
2022-12-14T08:40:28.458Z,5.10
2022-12-14T08:42:58.340Z,5.65
2022-12-14T08:45:29.912Z,6.05
2022-12-14T08:48:17.759Z,6.77
2022-12-14T08:50:46.349Z,6.53
2022-12-14T08:53:22.889Z,6.47
2022-12-14T08:55:54.317Z,6.00
2022-12-14T08:58:22.577Z,6.13
2022-12-14T09:00:53.715Z,6.93
2022-12-14T09:03:25.408Z,9.23
2022-12-14T09:05:55.653Z,7.23
2022-12-14T09:08:25.986Z,6.23
2022-12-14T09:10:54.387Z,8.30
2022-12-14T09:13:22.819Z,5.87
2022-12-14T09:16:01.045Z,6.53
2022-12-14T09:18:33.905Z,6.40
2022-12-14T09:21:02.645Z,7.17
2022-12-14T09:23:34.371Z,6.87
2022-12-14T09:26:09.809Z,6.83
2022-12-14T09:28:38.917Z,7.40
2022-12-14T09:31:08.042Z,7.03
2022-12-14T09:33:38.503Z,6.30
2022-12-14T09:36:12.556Z,6.17
2022-12-14T09:38:48.738Z,6.87
2022-12-14T09:41:36.847Z,6.07
2022-12-14T09:47:06.048Z,6.90
2022-12-14T09:49:49.230Z,6.10
2022-12-14T09:52:20.299Z,5.37
2022-12-14T09:54:50.352Z,6.70
2022-12-14T09:57:29.487Z,5.77
2022-12-14T10:00:05.019Z,6.33
2022-12-14T10:02:43.066Z,6.43
2022-12-14T10:05:45.294Z,5.97
2022-12-14T10:08:23.923Z,6.63
2022-12-14T10:11:06.368Z,6.67
2022-12-14T10:13:44.557Z,7.23
2022-12-14T10:16:28.781Z,6.87
2022-12-14T10:19:19.938Z,6.40
2022-12-14T10:22:13.494Z,6.17
2022-12-14T10:25:03.279Z,6.27
2022-12-14T10:28:23.347Z,6.07
2022-12-14T10:31:36.810Z,6.03
2022-12-14T10:40:33.844Z,5.57
2022-12-14T10:43:39.439Z,6.97
2022-12-14T10:49:51.130Z,6.40
2022-12-14T10:54:19.071Z,6.67
2022-12-14T10:56:27.498Z,6.00
2022-12-14T11:00:08.550Z,5.57
2022-12-14T11:07:26.902Z,6.20
2022-12-14T11:10:52.841Z,6.53
2022-12-14T11:14:20.438Z,5.40
2022-12-14T11:17:33.736Z,5.40
2022-12-14T11:21:20.725Z,4.60
2022-12-14T11:28:31.329Z,5.63
2022-12-14T15:58:55.266Z,4.30
2022-12-14T16:08:41.742Z,5.83
2022-12-14T16:30:07.073Z,6.83
2022-12-14T16:37:30.478Z,5.13
2022-12-14T16:40:38.753Z,4.97
2022-12-14T16:44:00.510Z,7.17
2022-12-14T16:47:23.210Z,5.97
2022-12-14T16:54:29.016Z,4.37
2022-12-14T17:05:48.112Z,6.57
2022-12-14T17:08:50.502Z,6.83
2022-12-14T17:11:50.616Z,5.43
2022-12-14T17:14:57.474Z,7.23
2022-12-14T17:21:31.255Z,6.50
2022-12-14T17:24:26.788Z,8.27
2022-12-14T17:27:23.529Z,6.73
2022-12-14T17:29:55.303Z,6.87
2022-12-14T17:32:28.410Z,5.93
2022-12-14T17:35:06.102Z,7.67
2022-12-14T17:37:41.754Z,7.97
2022-12-14T17:40:15.619Z,7.67
2022-12-14T17:42:53.184Z,6.93
2022-12-14T17:45:26.424Z,7.60
2022-12-14T17:48:11.123Z,6.60
2022-12-14T17:51:17.387Z,6.53
2022-12-14T17:53:51.138Z,6.90
2022-12-14T17:56:27.415Z,6.97
2022-12-14T17:58:55.840Z,7.30
2022-12-14T18:01:27.063Z,7.73
2022-12-14T18:04:01.586Z,8.27
2022-12-14T18:06:32.305Z,8.87
2022-12-14T18:09:19.217Z,8.07
2022-12-14T18:12:21.658Z,8.07
2022-12-14T18:14:39.516Z,8.60
2022-12-14T18:17:22.234Z,8.13
2022-12-14T18:19:55.304Z,7.53
2022-12-14T18:22:26.055Z,8.10
2022-12-14T18:25:04.272Z,6.80
2022-12-14T18:27:41.061Z,7.63
2022-12-14T18:30:13.928Z,7.13
2022-12-14T18:32:58.506Z,7.00
2022-12-14T18:35:33.461Z,6.50
2022-12-14T18:38:03.100Z,7.00
2022-12-14T18:40:41.927Z,6.47
2022-12-14T18:43:13.178Z,7.03
2022-12-14T18:45:41.642Z,6.93
2022-12-14T18:48:22.297Z,6.97
2022-12-14T18:50:50.658Z,6.27
2022-12-14T18:53:19.871Z,6.60
2022-12-14T18:56:00.349Z,6.90
2022-12-14T18:58:36.574Z,7.37
2022-12-14T19:01:07.393Z,6.73
2022-12-14T19:03:39.333Z,6.87
2022-12-14T19:06:43.545Z,6.97
2022-12-14T19:09:25.617Z,7.03
2022-12-14T19:11:55.593Z,6.27
2022-12-14T19:14:25.981Z,5.80
2022-12-14T19:16:54.438Z,7.23
2022-12-14T19:19:25.729Z,7.87
2022-12-14T19:22:05.086Z,8.83
2022-12-14T19:24:52.776Z,8.23
2022-12-14T19:28:20.027Z,8.30
2022-12-14T19:30:48.211Z,6.30
2022-12-14T19:33:16.929Z,7.80
2022-12-14T19:35:57.010Z,7.60
2022-12-14T19:38:28.504Z,9.77
2022-12-14T19:41:01.133Z,8.57
2022-12-14T19:43:35.056Z,7.30
2022-12-14T19:46:07.609Z,8.33
2022-12-14T19:48:35.996Z,8.47
2022-12-14T19:51:10.564Z,10.40
2022-12-14T19:53:44.375Z,7.37
2022-12-14T19:56:20.843Z,9.77
2022-12-14T19:58:50.618Z,8.13
2022-12-14T20:01:19.251Z,9.40
2022-12-14T20:03:49.607Z,7.93
2022-12-14T20:06:21.203Z,6.67
2022-12-14T20:08:51.161Z,6.83
2022-12-14T20:11:21.003Z,6.00
2022-12-14T20:13:56.702Z,8.10
2022-12-14T20:16:31.618Z,10.53
2022-12-14T20:19:02.848Z,8.37
2022-12-14T20:21:32.497Z,8.60
2022-12-14T20:24:00.918Z,7.73
2022-12-14T20:26:30.934Z,7.73
2022-12-14T20:31:55.702Z,7.20
2022-12-14T20:35:32.605Z,7.50
2022-12-14T20:38:03.375Z,7.53
2022-12-14T20:40:37.778Z,7.70
2022-12-14T20:43:09.252Z,8.40
2022-12-14T20:45:45.249Z,9.17
2022-12-14T20:48:16.605Z,7.63
2022-12-14T20:50:59.078Z,9.37
2022-12-14T20:53:34.861Z,7.77
2022-12-14T20:56:08.894Z,7.73
2022-12-14T20:58:37.373Z,6.30
2022-12-14T21:01:16.235Z,7.57
2022-12-14T21:03:48.975Z,6.87
2022-12-14T21:06:24.590Z,7.20
2022-12-14T21:09:35.739Z,6.70
2022-12-14T21:12:31.597Z,6.43
2022-12-14T21:15:03.542Z,7.03
2022-12-14T21:18:55.732Z,6.87
2022-12-14T21:27:44.201Z,7.53
2022-12-14T21:30:20.212Z,6.23
2022-12-14T21:32:49.237Z,6.90
2022-12-14T21:35:22.177Z,7.07
2022-12-14T21:38:00.994Z,8.83
2022-12-14T21:40:50.249Z,7.30
2022-12-14T21:43:18.534Z,7.27
2022-12-14T21:45:48.064Z,6.97
2022-12-14T21:48:21.792Z,7.43
2022-12-14T21:50:50.236Z,8.07
2022-12-14T21:53:33.282Z,7.37
2022-12-14T21:56:17.189Z,7.67
2022-12-14T21:58:48.545Z,8.33
2022-12-14T22:01:21.543Z,6.43
2022-12-14T22:03:53.300Z,7.70
2022-12-14T22:06:24.122Z,8.10
2022-12-14T22:08:59.053Z,8.73
2022-12-14T22:11:27.543Z,8.37
2022-12-14T22:13:55.900Z,7.67
2022-12-14T22:16:27.819Z,7.27
2022-12-14T22:18:57.444Z,6.80
2022-12-14T22:21:28.309Z,8.47
2022-12-14T22:23:58.177Z,8.60
2022-12-14T22:26:27.725Z,7.37
2022-12-14T22:28:58.424Z,8.53
2022-12-14T22:31:27.116Z,7.57
2022-12-14T22:33:59.700Z,7.77
2022-12-14T22:36:31.052Z,8.63
2022-12-14T22:39:02.355Z,6.67
2022-12-14T22:41:30.708Z,8.23
2022-12-14T22:43:59.702Z,7.83
2022-12-14T22:46:29.759Z,8.43
2022-12-14T22:48:58.132Z,7.07
2022-12-14T22:51:26.418Z,7.30
2022-12-14T22:53:54.786Z,6.63
2022-12-14T22:56:27.699Z,7.40
2022-12-14T22:58:57.134Z,6.93
2022-12-14T23:01:25.421Z,6.43
2022-12-14T23:03:53.956Z,7.30
2022-12-14T23:06:24.112Z,7.20
2022-12-14T23:09:09.738Z,7.73
2022-12-14T23:11:56.679Z,7.37
2022-12-14T23:14:42.115Z,8.77
2022-12-14T23:17:40.209Z,8.20
2022-12-14T23:20:29.811Z,8.10
2022-12-14T23:23:15.902Z,7.23
2022-12-14T23:26:01.705Z,7.40
2022-12-14T23:28:51.353Z,8.43
2022-12-14T23:31:37.380Z,7.70
2022-12-14T23:34:34.990Z,7.17
2022-12-14T23:37:20.791Z,8.17
2022-12-14T23:40:06.676Z,7.23
2022-12-14T23:42:52.217Z,8.77
2022-12-14T23:45:48.969Z,7.50
2022-12-14T23:48:36.313Z,8.07
2022-12-14T23:51:21.721Z,8.20
2022-12-14T23:54:07.477Z,8.53
2022-12-14T23:56:53.565Z,7.13
2022-12-14T23:59:39.302Z,8.30
